sensor_id;sensor_type;location;lat;lon;timestamp;P1;durP1;ratioP1;P2;durP2;ratioP2
71769;SDS011;66386;52.122;5.420;2023-01-13T00:00:07;25.43;;;3.40;;
71769;SDS011;66386;52.122;5.420;2023-01-13T00:02:34;24.30;;;3.30;;
71769;SDS011;66386;52.122;5.420;2023-01-13T00:05:01;20.10;;;1.60;;
71769;SDS011;66386;52.122;5.420;2023-01-13T00:07:27;22.55;;;1.83;;
71769;SDS011;66386;52.122;5.420;2023-01-13T00:09:54;20.25;;;3.13;;
71769;SDS011;66386;52.122;5.420;2023-01-13T00:12:20;15.83;;;2.20;;
71769;SDS011;66386;52.122;5.420;2023-01-13T00:14:46;14.40;;;2.33;;
71769;SDS011;66386;52.122;5.420;2023-01-13T00:17:13;26.15;;;2.72;;
71769;SDS011;66386;52.122;5.420;2023-01-13T00:19:39;18.83;;;2.45;;
71769;SDS011;66386;52.122;5.420;2023-01-13T00:22:06;23.70;;;1.40;;
71769;SDS011;66386;52.122;5.420;2023-01-13T00:24:32;14.60;;;1.70;;
71769;SDS011;66386;52.122;5.420;2023-01-13T00:26:59;15.75;;;2.28;;
71769;SDS011;66386;52.122;5.420;2023-01-13T00:29:25;16.52;;;1.60;;
71769;SDS011;66386;52.122;5.420;2023-01-13T00:31:52;18.92;;;2.80;;
71769;SDS011;66386;52.122;5.420;2023-01-13T00:34:18;17.00;;;1.85;;
71769;SDS011;66386;52.122;5.420;2023-01-13T00:36:45;19.63;;;1.73;;
71769;SDS011;66386;52.122;5.420;2023-01-13T00:39:11;25.40;;;1.85;;
71769;SDS011;66386;52.122;5.420;2023-01-13T00:41:38;17.23;;;1.73;;
71769;SDS011;66386;52.122;5.420;2023-01-13T00:44:22;14.38;;;1.65;;
71769;SDS011;66386;52.122;5.420;2023-01-13T00:46:49;16.73;;;1.80;;
71769;SDS011;66386;52.122;5.420;2023-01-13T00:49:15;26.80;;;2.73;;
71769;SDS011;66386;52.122;5.420;2023-01-13T00:51:42;17.77;;;1.40;;
71769;SDS011;66386;52.122;5.420;2023-01-13T00:54:09;26.20;;;2.05;;
71769;SDS011;66386;52.122;5.420;2023-01-13T00:56:35;19.50;;;2.33;;
71769;SDS011;66386;52.122;5.420;2023-01-13T00:59:08;19.30;;;1.38;;
71769;SDS011;66386;52.122;5.420;2023-01-13T01:01:36;14.63;;;1.80;;
71769;SDS011;66386;52.122;5.420;2023-01-13T01:04:03;18.38;;;1.92;;
71769;SDS011;66386;52.122;5.420;2023-01-13T01:06:29;21.05;;;2.53;;
71769;SDS011;66386;52.122;5.420;2023-01-13T01:08:56;22.67;;;2.95;;
71769;SDS011;66386;52.122;5.420;2023-01-13T01:11:26;16.83;;;1.50;;
71769;SDS011;66386;52.122;5.420;2023-01-13T01:13:55;20.37;;;2.10;;
71769;SDS011;66386;52.122;5.420;2023-01-13T01:16:24;12.70;;;1.50;;
71769;SDS011;66386;52.122;5.420;2023-01-13T01:18:53;22.75;;;2.30;;
71769;SDS011;66386;52.122;5.420;2023-01-13T01:21:21;14.73;;;1.83;;
71769;SDS011;66386;52.122;5.420;2023-01-13T01:23:49;22.45;;;2.28;;
71769;SDS011;66386;52.122;5.420;2023-01-13T01:26:17;17.13;;;1.90;;
71769;SDS011;66386;52.122;5.420;2023-01-13T01:28:45;16.95;;;1.52;;
71769;SDS011;66386;52.122;5.420;2023-01-13T01:31:13;27.38;;;1.85;;
71769;SDS011;66386;52.122;5.420;2023-01-13T01:33:41;20.88;;;3.00;;
71769;SDS011;66386;52.122;5.420;2023-01-13T01:36:09;17.08;;;2.30;;
71769;SDS011;66386;52.122;5.420;2023-01-13T01:38:37;12.10;;;2.00;;
71769;SDS011;66386;52.122;5.420;2023-01-13T01:41:04;18.67;;;2.50;;
71769;SDS011;66386;52.122;5.420;2023-01-13T01:46:25;24.92;;;2.10;;
71769;SDS011;66386;52.122;5.420;2023-01-13T01:48:54;18.75;;;1.73;;
71769;SDS011;66386;52.122;5.420;2023-01-13T01:51:49;17.60;;;2.40;;
71769;SDS011;66386;52.122;5.420;2023-01-13T01:54:26;13.13;;;1.38;;
71769;SDS011;66386;52.122;5.420;2023-01-13T01:56:58;19.38;;;1.98;;
71769;SDS011;66386;52.122;5.420;2023-01-13T01:59:25;13.60;;;2.17;;
71769;SDS011;66386;52.122;5.420;2023-01-13T02:01:54;17.00;;;1.90;;
71769;SDS011;66386;52.122;5.420;2023-01-13T02:04:22;18.50;;;1.70;;
71769;SDS011;66386;52.122;5.420;2023-01-13T02:06:53;20.75;;;2.05;;
71769;SDS011;66386;52.122;5.420;2023-01-13T02:09:21;15.93;;;2.25;;
71769;SDS011;66386;52.122;5.420;2023-01-13T02:11:51;18.10;;;1.73;;
71769;SDS011;66386;52.122;5.420;2023-01-13T02:14:36;19.38;;;1.27;;
71769;SDS011;66386;52.122;5.420;2023-01-13T02:31:32;16.20;;;1.87;;
71769;SDS011;66386;52.122;5.420;2023-01-13T02:34:21;19.05;;;2.03;;
71769;SDS011;66386;52.122;5.420;2023-01-13T02:39:54;13.82;;;1.92;;
71769;SDS011;66386;52.122;5.420;2023-01-13T02:42:29;26.77;;;2.70;;
71769;SDS011;66386;52.122;5.420;2023-01-13T02:45:22;22.73;;;1.70;;
71769;SDS011;66386;52.122;5.420;2023-01-13T02:47:53;14.95;;;1.77;;
71769;SDS011;66386;52.122;5.420;2023-01-13T02:50:31;14.20;;;1.60;;
71769;SDS011;66386;52.122;5.420;2023-01-13T02:53:10;17.85;;;2.05;;
71769;SDS011;66386;52.122;5.420;2023-01-13T02:55:43;19.70;;;2.03;;
71769;SDS011;66386;52.122;5.420;2023-01-13T02:58:14;17.40;;;2.23;;
71769;SDS011;66386;52.122;5.420;2023-01-13T03:00:44;20.17;;;2.25;;
71769;SDS011;66386;52.122;5.420;2023-01-13T03:03:12;18.02;;;2.10;;
71769;SDS011;66386;52.122;5.420;2023-01-13T03:05:39;24.52;;;3.40;;
71769;SDS011;66386;52.122;5.420;2023-01-13T03:08:30;20.77;;;2.85;;
71769;SDS011;66386;52.122;5.420;2023-01-13T03:11:05;25.77;;;2.33;;
71769;SDS011;66386;52.122;5.420;2023-01-13T03:13:56;21.15;;;2.75;;
71769;SDS011;66386;52.122;5.420;2023-01-13T03:16:36;18.40;;;2.03;;
71769;SDS011;66386;52.122;5.420;2023-01-13T03:19:20;19.23;;;2.17;;
71769;SDS011;66386;52.122;5.420;2023-01-13T03:22:00;19.38;;;3.20;;
71769;SDS011;66386;52.122;5.420;2023-01-13T03:24:55;11.60;;;1.50;;
71769;SDS011;66386;52.122;5.420;2023-01-13T03:30:22;16.17;;;1.85;;
71769;SDS011;66386;52.122;5.420;2023-01-13T03:32:55;19.38;;;1.58;;
71769;SDS011;66386;52.122;5.420;2023-01-13T03:35:28;11.07;;;1.63;;
71769;SDS011;66386;52.122;5.420;2023-01-13T03:37:59;13.83;;;2.07;;
71769;SDS011;66386;52.122;5.420;2023-01-13T03:40:32;16.65;;;1.73;;
71769;SDS011;66386;52.122;5.420;2023-01-13T03:43:02;16.70;;;1.88;;
71769;SDS011;66386;52.122;5.420;2023-01-13T03:45:54;23.95;;;2.60;;
71769;SDS011;66386;52.122;5.420;2023-01-13T03:48:24;16.40;;;2.67;;
71769;SDS011;66386;52.122;5.420;2023-01-13T03:50:53;14.70;;;1.67;;
71769;SDS011;66386;52.122;5.420;2023-01-13T03:53:27;13.85;;;1.50;;
71769;SDS011;66386;52.122;5.420;2023-01-13T03:55:59;23.23;;;2.67;;
71769;SDS011;66386;52.122;5.420;2023-01-13T03:58:38;11.13;;;1.50;;
71769;SDS011;66386;52.122;5.420;2023-01-13T04:01:13;16.60;;;1.70;;
71769;SDS011;66386;52.122;5.420;2023-01-13T04:11:43;11.18;;;1.20;;
71769;SDS011;66386;52.122;5.420;2023-01-13T04:14:14;13.90;;;1.30;;
71769;SDS011;66386;52.122;5.420;2023-01-13T04:16:44;7.63;;;0.90;;
71769;SDS011;66386;52.122;5.420;2023-01-13T04:19:10;13.65;;;1.70;;
71769;SDS011;66386;52.122;5.420;2023-01-13T04:21:37;11.77;;;1.95;;
71769;SDS011;66386;52.122;5.420;2023-01-13T04:24:04;12.10;;;1.40;;
71769;SDS011;66386;52.122;5.420;2023-01-13T04:26:30;15.57;;;1.02;;
71769;SDS011;66386;52.122;5.420;2023-01-13T04:28:57;8.40;;;1.33;;
71769;SDS011;66386;52.122;5.420;2023-01-13T04:31:23;9.18;;;0.95;;
71769;SDS011;66386;52.122;5.420;2023-01-13T04:33:50;10.43;;;1.15;;
71769;SDS011;66386;52.122;5.420;2023-01-13T04:36:16;12.35;;;0.70;;
71769;SDS011;66386;52.122;5.420;2023-01-13T04:38:44;8.77;;;0.65;;
71769;SDS011;66386;52.122;5.420;2023-01-13T04:41:11;7.57;;;0.47;;
71769;SDS011;66386;52.122;5.420;2023-01-13T04:43:37;7.63;;;0.88;;
71769;SDS011;66386;52.122;5.420;2023-01-13T04:46:04;5.03;;;0.60;;
71769;SDS011;66386;52.122;5.420;2023-01-13T04:48:30;3.35;;;0.50;;
71769;SDS011;66386;52.122;5.420;2023-01-13T04:50:57;4.30;;;0.30;;
71769;SDS011;66386;52.122;5.420;2023-01-13T04:53:23;5.13;;;1.13;;
71769;SDS011;66386;52.122;5.420;2023-01-13T04:55:50;9.05;;;0.47;;
71769;SDS011;66386;52.122;5.420;2023-01-13T04:58:17;4.53;;;0.55;;
71769;SDS011;66386;52.122;5.420;2023-01-13T05:00:43;8.27;;;0.40;;
71769;SDS011;66386;52.122;5.420;2023-01-13T05:03:10;7.57;;;0.77;;
71769;SDS011;66386;52.122;5.420;2023-01-13T05:05:37;5.90;;;0.43;;
71769;SDS011;66386;52.122;5.420;2023-01-13T05:08:03;8.75;;;0.77;;
71769;SDS011;66386;52.122;5.420;2023-01-13T05:10:30;9.98;;;0.93;;
71769;SDS011;66386;52.122;5.420;2023-01-13T05:12:57;6.13;;;0.63;;
71769;SDS011;66386;52.122;5.420;2023-01-13T05:15:42;9.40;;;0.52;;
71769;SDS011;66386;52.122;5.420;2023-01-13T05:18:30;5.23;;;0.80;;
71769;SDS011;66386;52.122;5.420;2023-01-13T05:20:57;5.07;;;0.50;;
71769;SDS011;66386;52.122;5.420;2023-01-13T05:23:23;5.35;;;0.68;;
71769;SDS011;66386;52.122;5.420;2023-01-13T05:26:08;7.63;;;0.45;;
71769;SDS011;66386;52.122;5.420;2023-01-13T05:28:35;7.80;;;0.77;;
71769;SDS011;66386;52.122;5.420;2023-01-13T05:31:01;7.80;;;0.83;;
71769;SDS011;66386;52.122;5.420;2023-01-13T05:33:28;5.28;;;0.88;;
71769;SDS011;66386;52.122;5.420;2023-01-13T05:35:55;13.63;;;1.00;;
71769;SDS011;66386;52.122;5.420;2023-01-13T05:38:21;7.55;;;0.90;;
71769;SDS011;66386;52.122;5.420;2023-01-13T05:40:48;8.43;;;0.65;;
71769;SDS011;66386;52.122;5.420;2023-01-13T05:43:33;6.50;;;0.57;;
71769;SDS011;66386;52.122;5.420;2023-01-13T05:46:00;9.23;;;0.63;;
71769;SDS011;66386;52.122;5.420;2023-01-13T05:48:34;7.30;;;0.55;;
71769;SDS011;66386;52.122;5.420;2023-01-13T05:51:02;10.82;;;0.77;;
71769;SDS011;66386;52.122;5.420;2023-01-13T05:53:31;9.00;;;0.70;;
71769;SDS011;66386;52.122;5.420;2023-01-13T05:55:57;9.60;;;0.70;;
71769;SDS011;66386;52.122;5.420;2023-01-13T05:58:25;11.93;;;1.00;;
71769;SDS011;66386;52.122;5.420;2023-01-13T06:00:57;9.77;;;1.38;;
71769;SDS011;66386;52.122;5.420;2023-01-13T06:03:25;6.28;;;0.63;;
71769;SDS011;66386;52.122;5.420;2023-01-13T06:05:52;9.52;;;1.17;;
71769;SDS011;66386;52.122;5.420;2023-01-13T06:08:24;10.33;;;0.73;;
71769;SDS011;66386;52.122;5.420;2023-01-13T06:10:50;13.63;;;1.65;;
71769;SDS011;66386;52.122;5.420;2023-01-13T06:13:17;8.57;;;1.08;;
71769;SDS011;66386;52.122;5.420;2023-01-13T06:15:43;13.20;;;0.80;;
71769;SDS011;66386;52.122;5.420;2023-01-13T06:18:10;21.33;;;1.13;;
71769;SDS011;66386;52.122;5.420;2023-01-13T06:20:37;6.70;;;0.70;;
71769;SDS011;66386;52.122;5.420;2023-01-13T06:23:03;8.82;;;0.70;;
71769;SDS011;66386;52.122;5.420;2023-01-13T06:25:41;7.85;;;0.82;;
71769;SDS011;66386;52.122;5.420;2023-01-13T06:28:09;11.80;;;1.05;;
71769;SDS011;66386;52.122;5.420;2023-01-13T06:30:41;12.70;;;0.80;;
71769;SDS011;66386;52.122;5.420;2023-01-13T06:33:12;9.97;;;0.97;;
71769;SDS011;66386;52.122;5.420;2023-01-13T06:35:43;8.00;;;0.70;;
71769;SDS011;66386;52.122;5.420;2023-01-13T06:38:15;7.68;;;0.68;;
71769;SDS011;66386;52.122;5.420;2023-01-13T06:40:45;12.40;;;0.80;;
71769;SDS011;66386;52.122;5.420;2023-01-13T06:43:12;11.02;;;1.17;;
71769;SDS011;66386;52.122;5.420;2023-01-13T06:48:21;6.47;;;0.82;;
71769;SDS011;66386;52.122;5.420;2023-01-13T06:51:01;12.50;;;1.50;;
71769;SDS011;66386;52.122;5.420;2023-01-13T06:53:28;14.10;;;0.85;;
71769;SDS011;66386;52.122;5.420;2023-01-13T06:55:55;8.52;;;1.10;;
71769;SDS011;66386;52.122;5.420;2023-01-13T06:58:21;6.40;;;0.80;;
71769;SDS011;66386;52.122;5.420;2023-01-13T07:00:48;7.65;;;1.08;;
71769;SDS011;66386;52.122;5.420;2023-01-13T07:03:17;13.90;;;1.02;;
71769;SDS011;66386;52.122;5.420;2023-01-13T07:05:50;13.10;;;1.60;;
71769;SDS011;66386;52.122;5.420;2023-01-13T07:08:18;14.07;;;1.10;;
71769;SDS011;66386;52.122;5.420;2023-01-13T07:10:45;14.37;;;1.33;;
71769;SDS011;66386;52.122;5.420;2023-01-13T07:13:12;9.27;;;1.10;;
71769;SDS011;66386;52.122;5.420;2023-01-13T07:16:01;10.88;;;1.45;;
71769;SDS011;66386;52.122;5.420;2023-01-13T07:18:30;13.52;;;2.08;;
71769;SDS011;66386;52.122;5.420;2023-01-13T07:20:59;10.60;;;1.27;;
71769;SDS011;66386;52.122;5.420;2023-01-13T07:23:28;7.23;;;1.20;;
71769;SDS011;66386;52.122;5.420;2023-01-13T07:25:56;7.50;;;1.10;;
71769;SDS011;66386;52.122;5.420;2023-01-13T07:28:24;11.77;;;1.30;;
71769;SDS011;66386;52.122;5.420;2023-01-13T07:30:51;8.48;;;1.08;;
71769;SDS011;66386;52.122;5.420;2023-01-13T07:33:18;11.93;;;1.73;;
71769;SDS011;66386;52.122;5.420;2023-01-13T07:35:45;11.10;;;1.40;;
71769;SDS011;66386;52.122;5.420;2023-01-13T07:38:13;9.38;;;1.25;;
71769;SDS011;66386;52.122;5.420;2023-01-13T07:40:40;12.98;;;1.40;;
71769;SDS011;66386;52.122;5.420;2023-01-13T07:43:08;13.57;;;1.35;;
71769;SDS011;66386;52.122;5.420;2023-01-13T07:46:05;16.80;;;1.92;;
71769;SDS011;66386;52.122;5.420;2023-01-13T07:48:32;15.73;;;1.27;;
71769;SDS011;66386;52.122;5.420;2023-01-13T07:51:00;18.77;;;1.70;;
71769;SDS011;66386;52.122;5.420;2023-01-13T07:53:27;17.95;;;2.10;;
71769;SDS011;66386;52.122;5.420;2023-01-13T07:55:54;8.00;;;0.60;;
71769;SDS011;66386;52.122;5.420;2023-01-13T07:58:22;15.65;;;1.15;;
71769;SDS011;66386;52.122;5.420;2023-01-13T08:00:50;12.33;;;1.80;;
71769;SDS011;66386;52.122;5.420;2023-01-13T08:03:17;13.60;;;1.98;;
71769;SDS011;66386;52.122;5.420;2023-01-13T08:05:43;9.85;;;1.10;;
71769;SDS011;66386;52.122;5.420;2023-01-13T08:08:10;10.90;;;1.20;;
71769;SDS011;66386;52.122;5.420;2023-01-13T08:10:37;9.73;;;1.13;;
71769;SDS011;66386;52.122;5.420;2023-01-13T08:13:08;13.07;;;1.53;;
71769;SDS011;66386;52.122;5.420;2023-01-13T08:15:58;19.13;;;2.40;;
71769;SDS011;66386;52.122;5.420;2023-01-13T08:18:27;12.88;;;1.73;;
71769;SDS011;66386;52.122;5.420;2023-01-13T08:20:54;14.73;;;1.70;;
71769;SDS011;66386;52.122;5.420;2023-01-13T08:23:21;9.95;;;1.13;;
71769;SDS011;66386;52.122;5.420;2023-01-13T08:25:48;13.20;;;1.30;;
71769;SDS011;66386;52.122;5.420;2023-01-13T08:28:15;5.50;;;1.10;;
71769;SDS011;66386;52.122;5.420;2023-01-13T08:30:42;16.77;;;0.80;;
71769;SDS011;66386;52.122;5.420;2023-01-13T08:33:10;10.32;;;0.98;;
71769;SDS011;66386;52.122;5.420;2023-01-13T08:35:38;15.82;;;1.60;;
71769;SDS011;66386;52.122;5.420;2023-01-13T08:38:06;15.33;;;1.00;;
71769;SDS011;66386;52.122;5.420;2023-01-13T08:40:33;9.77;;;0.95;;
71769;SDS011;66386;52.122;5.420;2023-01-13T08:43:00;13.48;;;1.02;;
71769;SDS011;66386;52.122;5.420;2023-01-13T08:45:26;7.47;;;0.85;;
71769;SDS011;66386;52.122;5.420;2023-01-13T08:47:53;18.15;;;1.58;;
71769;SDS011;66386;52.122;5.420;2023-01-13T08:50:19;22.37;;;2.70;;
71769;SDS011;66386;52.122;5.420;2023-01-13T08:52:46;13.43;;;1.80;;
71769;SDS011;66386;52.122;5.420;2023-01-13T08:55:12;10.02;;;1.20;;
71769;SDS011;66386;52.122;5.420;2023-01-13T08:57:39;11.20;;;1.55;;
71769;SDS011;66386;52.122;5.420;2023-01-13T09:00:06;13.90;;;1.40;;
71769;SDS011;66386;52.122;5.420;2023-01-13T09:02:33;13.80;;;1.30;;
71769;SDS011;66386;52.122;5.420;2023-01-13T09:04:59;12.95;;;1.25;;
71769;SDS011;66386;52.122;5.420;2023-01-13T09:07:29;10.68;;;1.25;;
71769;SDS011;66386;52.122;5.420;2023-01-13T09:09:56;10.75;;;0.95;;
71769;SDS011;66386;52.122;5.420;2023-01-13T09:12:22;16.67;;;1.73;;
71769;SDS011;66386;52.122;5.420;2023-01-13T09:15:08;14.03;;;1.60;;
71769;SDS011;66386;52.122;5.420;2023-01-13T09:17:35;12.35;;;1.42;;
71769;SDS011;66386;52.122;5.420;2023-01-13T09:20:02;11.70;;;1.50;;
71769;SDS011;66386;52.122;5.420;2023-01-13T09:22:29;10.80;;;1.08;;
71769;SDS011;66386;52.122;5.420;2023-01-13T09:24:55;6.30;;;1.60;;
71769;SDS011;66386;52.122;5.420;2023-01-13T09:27:22;14.60;;;1.90;;
71769;SDS011;66386;52.122;5.420;2023-01-13T09:29:49;11.95;;;1.13;;
71769;SDS011;66386;52.122;5.420;2023-01-13T09:32:15;12.27;;;1.27;;
71769;SDS011;66386;52.122;5.420;2023-01-13T09:34:42;14.43;;;1.40;;
71769;SDS011;66386;52.122;5.420;2023-01-13T09:37:37;12.13;;;1.48;;
71769;SDS011;66386;52.122;5.420;2023-01-13T09:40:11;7.97;;;1.00;;
71769;SDS011;66386;52.122;5.420;2023-01-13T09:42:46;14.20;;;1.70;;
71769;SDS011;66386;52.122;5.420;2023-01-13T09:45:59;13.73;;;1.10;;
71769;SDS011;66386;52.122;5.420;2023-01-13T09:48:37;10.15;;;1.33;;
71769;SDS011;66386;52.122;5.420;2023-01-13T09:51:37;12.82;;;1.30;;
71769;SDS011;66386;52.122;5.420;2023-01-13T09:54:16;8.03;;;1.37;;
71769;SDS011;66386;52.122;5.420;2023-01-13T09:57:00;12.45;;;1.50;;
71769;SDS011;66386;52.122;5.420;2023-01-13T09:59:28;14.07;;;1.92;;
71769;SDS011;66386;52.122;5.420;2023-01-13T10:05:08;10.48;;;1.63;;
71769;SDS011;66386;52.122;5.420;2023-01-13T10:07:43;13.77;;;1.40;;
71769;SDS011;66386;52.122;5.420;2023-01-13T10:10:17;12.23;;;0.90;;
71769;SDS011;66386;52.122;5.420;2023-01-13T10:13:13;13.52;;;1.63;;
71769;SDS011;66386;52.122;5.420;2023-01-13T10:15:51;14.35;;;2.08;;
71769;SDS011;66386;52.122;5.420;2023-01-13T10:18:27;11.48;;;1.83;;
71769;SDS011;66386;52.122;5.420;2023-01-13T10:24:00;10.63;;;1.60;;
71769;SDS011;66386;52.122;5.420;2023-01-13T10:28:59;9.02;;;1.30;;
71769;SDS011;66386;52.122;5.420;2023-01-13T10:31:26;15.00;;;1.60;;
71769;SDS011;66386;52.122;5.420;2023-01-13T10:33:59;10.40;;;1.10;;
71769;SDS011;66386;52.122;5.420;2023-01-13T10:36:29;15.93;;;1.63;;
71769;SDS011;66386;52.122;5.420;2023-01-13T10:39:29;14.60;;;2.25;;
71769;SDS011;66386;52.122;5.420;2023-01-13T10:41:48;14.10;;;1.20;;
71769;SDS011;66386;52.122;5.420;2023-01-13T10:44:25;17.45;;;2.17;;
71769;SDS011;66386;52.122;5.420;2023-01-13T10:46:53;16.03;;;1.20;;
71769;SDS011;66386;52.122;5.420;2023-01-13T10:49:31;8.75;;;1.15;;
71769;SDS011;66386;52.122;5.420;2023-01-13T10:52:00;15.68;;;1.17;;
71769;SDS011;66386;52.122;5.420;2023-01-13T10:54:27;8.32;;;1.40;;
71769;SDS011;66386;52.122;5.420;2023-01-13T10:57:14;11.07;;;1.10;;
71769;SDS011;66386;52.122;5.420;2023-01-13T10:59:44;16.27;;;1.50;;
71769;SDS011;66386;52.122;5.420;2023-01-13T11:07:24;9.75;;;1.13;;
71769;SDS011;66386;52.122;5.420;2023-01-13T11:10:08;9.95;;;1.45;;
71769;SDS011;66386;52.122;5.420;2023-01-13T11:15:33;11.43;;;1.50;;
71769;SDS011;66386;52.122;5.420;2023-01-13T11:18:03;14.23;;;1.48;;
71769;SDS011;66386;52.122;5.420;2023-01-13T11:20:36;13.13;;;1.33;;
71769;SDS011;66386;52.122;5.420;2023-01-13T11:23:12;9.52;;;1.15;;
71769;SDS011;66386;52.122;5.420;2023-01-13T11:25:44;13.17;;;1.23;;
71769;SDS011;66386;52.122;5.420;2023-01-13T11:28:15;9.07;;;0.73;;
71769;SDS011;66386;52.122;5.420;2023-01-13T11:30:51;10.35;;;0.90;;
71769;SDS011;66386;52.122;5.420;2023-01-13T11:33:44;6.72;;;0.63;;
71769;SDS011;66386;52.122;5.420;2023-01-13T11:36:17;7.47;;;1.13;;
71769;SDS011;66386;52.122;5.420;2023-01-13T11:38:56;9.50;;;0.97;;
71769;SDS011;66386;52.122;5.420;2023-01-13T11:41:41;9.82;;;0.90;;
71769;SDS011;66386;52.122;5.420;2023-01-13T11:44:40;10.27;;;0.90;;
71769;SDS011;66386;52.122;5.420;2023-01-13T11:47:11;6.40;;;0.90;;
71769;SDS011;66386;52.122;5.420;2023-01-13T11:49:39;5.10;;;0.70;;
71769;SDS011;66386;52.122;5.420;2023-01-13T11:52:17;8.23;;;0.77;;
71769;SDS011;66386;52.122;5.420;2023-01-13T11:57:48;9.88;;;1.05;;
71769;SDS011;66386;52.122;5.420;2023-01-13T12:00:31;6.72;;;0.77;;
71769;SDS011;66386;52.122;5.420;2023-01-13T12:05:42;10.13;;;0.63;;
71769;SDS011;66386;52.122;5.420;2023-01-13T12:16:12;15.25;;;1.23;;
71769;SDS011;66386;52.122;5.420;2023-01-13T12:21:16;9.23;;;1.35;;
71769;SDS011;66386;52.122;5.420;2023-01-13T12:24:46;8.65;;;1.20;;
71769;SDS011;66386;52.122;5.420;2023-01-13T12:26:48;9.25;;;0.90;;
71769;SDS011;66386;52.122;5.420;2023-01-13T12:29:22;4.68;;;0.80;;
71769;SDS011;66386;52.122;5.420;2023-01-13T12:31:58;7.00;;;0.90;;
71769;SDS011;66386;52.122;5.420;2023-01-13T12:37:48;9.35;;;1.20;;
71769;SDS011;66386;52.122;5.420;2023-01-13T12:45:47;6.20;;;0.50;;
71769;SDS011;66386;52.122;5.420;2023-01-13T12:51:24;8.18;;;1.20;;
71769;SDS011;66386;52.122;5.420;2023-01-13T12:54:01;9.60;;;0.88;;
71769;SDS011;66386;52.122;5.420;2023-01-13T12:56:48;5.28;;;0.50;;
71769;SDS011;66386;52.122;5.420;2023-01-13T13:01:50;8.40;;;0.68;;
71769;SDS011;66386;52.122;5.420;2023-01-13T13:04:46;6.80;;;0.90;;
71769;SDS011;66386;52.122;5.420;2023-01-13T13:07:37;8.57;;;0.93;;
71769;SDS011;66386;52.122;5.420;2023-01-13T13:12:59;8.10;;;0.90;;
71769;SDS011;66386;52.122;5.420;2023-01-13T13:15:46;10.10;;;0.65;;
71769;SDS011;66386;52.122;5.420;2023-01-13T13:23:39;5.20;;;0.80;;
71769;SDS011;66386;52.122;5.420;2023-01-13T13:26:24;6.60;;;0.73;;
71769;SDS011;66386;52.122;5.420;2023-01-13T13:40:43;13.87;;;1.03;;
71769;SDS011;66386;52.122;5.420;2023-01-13T13:43:41;9.63;;;1.20;;
71769;SDS011;66386;52.122;5.420;2023-01-13T13:46:31;7.22;;;0.52;;
71769;SDS011;66386;52.122;5.420;2023-01-13T13:49:21;5.10;;;0.60;;
71769;SDS011;66386;52.122;5.420;2023-01-13T13:54:37;12.43;;;1.13;;
71769;SDS011;66386;52.122;5.420;2023-01-13T13:57:18;7.93;;;0.50;;
71769;SDS011;66386;52.122;5.420;2023-01-13T13:59:49;6.40;;;0.70;;
71769;SDS011;66386;52.122;5.420;2023-01-13T14:02:27;4.10;;;0.40;;
71769;SDS011;66386;52.122;5.420;2023-01-13T14:07:47;4.77;;;0.80;;
71769;SDS011;66386;52.122;5.420;2023-01-13T14:10:37;7.63;;;0.70;;
71769;SDS011;66386;52.122;5.420;2023-01-13T14:13:12;8.63;;;0.50;;
71769;SDS011;66386;52.122;5.420;2023-01-13T14:16:03;9.02;;;0.68;;
71769;SDS011;66386;52.122;5.420;2023-01-13T14:18:32;7.40;;;0.85;;
71769;SDS011;66386;52.122;5.420;2023-01-13T14:21:17;2.87;;;0.60;;
71769;SDS011;66386;52.122;5.420;2023-01-13T14:23:53;8.40;;;1.40;;
71769;SDS011;66386;52.122;5.420;2023-01-13T14:26:27;6.90;;;1.27;;
71769;SDS011;66386;52.122;5.420;2023-01-13T14:28:56;6.10;;;0.57;;
71769;SDS011;66386;52.122;5.420;2023-01-13T14:31:25;7.90;;;0.90;;
71769;SDS011;66386;52.122;5.420;2023-01-13T14:33:54;7.37;;;0.57;;
71769;SDS011;66386;52.122;5.420;2023-01-13T14:44:11;5.57;;;0.68;;
71769;SDS011;66386;52.122;5.420;2023-01-13T14:47:00;3.87;;;0.37;;
71769;SDS011;66386;52.122;5.420;2023-01-13T14:49:37;9.50;;;1.13;;
71769;SDS011;66386;52.122;5.420;2023-01-13T14:52:14;9.90;;;1.48;;
71769;SDS011;66386;52.122;5.420;2023-01-13T14:54:48;9.27;;;0.50;;
71769;SDS011;66386;52.122;5.420;2023-01-13T14:57:26;8.00;;;0.88;;
71769;SDS011;66386;52.122;5.420;2023-01-13T15:00:02;8.13;;;0.47;;
71769;SDS011;66386;52.122;5.420;2023-01-13T15:02:46;9.00;;;0.93;;
71769;SDS011;66386;52.122;5.420;2023-01-13T15:07:58;7.07;;;0.60;;
71769;SDS011;66386;52.122;5.420;2023-01-13T15:10:44;3.42;;;0.60;;
71769;SDS011;66386;52.122;5.420;2023-01-13T15:18:50;8.65;;;0.63;;
71769;SDS011;66386;52.122;5.420;2023-01-13T15:21:18;5.10;;;0.77;;
71769;SDS011;66386;52.122;5.420;2023-01-13T15:23:44;5.53;;;0.93;;
71769;SDS011;66386;52.122;5.420;2023-01-13T15:28:45;5.88;;;1.02;;
71769;SDS011;66386;52.122;5.420;2023-01-13T15:31:12;10.98;;;1.30;;
71769;SDS011;66386;52.122;5.420;2023-01-13T15:33:39;10.70;;;0.68;;
71769;SDS011;66386;52.122;5.420;2023-01-13T15:36:05;4.63;;;1.00;;
71769;SDS011;66386;52.122;5.420;2023-01-13T15:38:52;8.43;;;1.20;;
71769;SDS011;66386;52.122;5.420;2023-01-13T15:41:19;5.57;;;0.85;;
71769;SDS011;66386;52.122;5.420;2023-01-13T15:44:06;7.10;;;0.70;;
71769;SDS011;66386;52.122;5.420;2023-01-13T15:46:53;6.40;;;0.68;;
71769;SDS011;66386;52.122;5.420;2023-01-13T15:51:50;6.90;;;0.70;;
71769;SDS011;66386;52.122;5.420;2023-01-13T15:54:17;10.05;;;0.80;;
71769;SDS011;66386;52.122;5.420;2023-01-13T15:56:47;6.80;;;0.70;;
71769;SDS011;66386;52.122;5.420;2023-01-13T15:59:16;5.57;;;0.60;;
71769;SDS011;66386;52.122;5.420;2023-01-13T16:01:46;7.25;;;0.88;;
71769;SDS011;66386;52.122;5.420;2023-01-13T16:04:12;7.97;;;0.77;;
71769;SDS011;66386;52.122;5.420;2023-01-13T16:06:39;13.30;;;1.27;;
71769;SDS011;66386;52.122;5.420;2023-01-13T16:09:06;9.05;;;0.70;;
71769;SDS011;66386;52.122;5.420;2023-01-13T16:11:32;9.25;;;1.10;;
71769;SDS011;66386;52.122;5.420;2023-01-13T16:13:59;9.65;;;0.88;;
71769;SDS011;66386;52.122;5.420;2023-01-13T16:16:26;4.17;;;0.93;;
71769;SDS011;66386;52.122;5.420;2023-01-13T16:18:54;8.88;;;0.55;;
71769;SDS011;66386;52.122;5.420;2023-01-13T16:21:21;5.22;;;1.10;;
71769;SDS011;66386;52.122;5.420;2023-01-13T16:23:48;7.13;;;0.60;;
71769;SDS011;66386;52.122;5.420;2023-01-13T16:26:18;9.65;;;0.95;;
71769;SDS011;66386;52.122;5.420;2023-01-13T16:28:47;9.00;;;1.07;;
71769;SDS011;66386;52.122;5.420;2023-01-13T16:31:16;5.63;;;0.85;;
71769;SDS011;66386;52.122;5.420;2023-01-13T16:33:44;8.80;;;1.45;;
71769;SDS011;66386;52.122;5.420;2023-01-13T16:36:14;9.80;;;1.33;;
71769;SDS011;66386;52.122;5.420;2023-01-13T16:38:42;8.77;;;1.45;;
71769;SDS011;66386;52.122;5.420;2023-01-13T16:41:09;7.80;;;1.20;;
71769;SDS011;66386;52.122;5.420;2023-01-13T16:43:36;7.82;;;0.80;;
71769;SDS011;66386;52.122;5.420;2023-01-13T16:46:08;11.52;;;1.77;;
71769;SDS011;66386;52.122;5.420;2023-01-13T16:48:42;5.03;;;0.85;;
71769;SDS011;66386;52.122;5.420;2023-01-13T16:51:10;8.30;;;0.82;;
71769;SDS011;66386;52.122;5.420;2023-01-13T16:53:37;8.43;;;0.70;;
71769;SDS011;66386;52.122;5.420;2023-01-13T16:56:09;3.97;;;0.77;;
71769;SDS011;66386;52.122;5.420;2023-01-13T16:58:51;7.95;;;0.70;;
71769;SDS011;66386;52.122;5.420;2023-01-13T17:01:20;2.95;;;0.65;;
71769;SDS011;66386;52.122;5.420;2023-01-13T17:03:54;8.98;;;0.60;;
71769;SDS011;66386;52.122;5.420;2023-01-13T17:06:26;8.27;;;0.80;;
71769;SDS011;66386;52.122;5.420;2023-01-13T17:09:15;4.82;;;0.57;;
71769;SDS011;66386;52.122;5.420;2023-01-13T17:11:46;3.70;;;0.55;;
71769;SDS011;66386;52.122;5.420;2023-01-13T17:14:12;3.08;;;0.50;;
71769;SDS011;66386;52.122;5.420;2023-01-13T17:16:44;5.53;;;0.70;;